sensor_id;sensor_type;location;lat;lon;timestamp;P1;durP1;ratioP1;P2;durP2;ratioP2
77222;SDS011;66218;48.928;9.140;2023-02-28T00:00:06;0.30;;;0.20;;
77222;SDS011;66218;48.928;9.140;2023-02-28T00:02:38;0.38;;;0.30;;
77222;SDS011;66218;48.928;9.140;2023-02-28T00:05:04;0.10;;;0.10;;
77222;SDS011;66218;48.928;9.140;2023-02-28T00:07:30;1.90;;;1.20;;
77222;SDS011;66218;48.928;9.140;2023-02-28T00:09:55;0.75;;;0.40;;
77222;SDS011;66218;48.928;9.140;2023-02-28T00:12:21;0.47;;;0.47;;
77222;SDS011;66218;48.928;9.140;2023-02-28T00:14:46;0.90;;;0.87;;
77222;SDS011;66218;48.928;9.140;2023-02-28T00:17:11;0.53;;;0.50;;
77222;SDS011;66218;48.928;9.140;2023-02-28T00:19:36;0.27;;;0.20;;
77222;SDS011;66218;48.928;9.140;2023-02-28T00:22:02;0.10;;;0.10;;
77222;SDS011;66218;48.928;9.140;2023-02-28T00:24:27;0.10;;;0.10;;
77222;SDS011;66218;48.928;9.140;2023-02-28T00:26:52;0.30;;;0.30;;
77222;SDS011;66218;48.928;9.140;2023-02-28T00:29:17;2.33;;;2.03;;
77222;SDS011;66218;48.928;9.140;2023-02-28T00:31:42;0.27;;;0.27;;
77222;SDS011;66218;48.928;9.140;2023-02-28T00:34:08;2.20;;;0.45;;
77222;SDS011;66218;48.928;9.140;2023-02-28T00:36:33;0.37;;;0.37;;
77222;SDS011;66218;48.928;9.140;2023-02-28T00:38:58;1.50;;;1.17;;
77222;SDS011;66218;48.928;9.140;2023-02-28T00:41:23;0.53;;;0.30;;
77222;SDS011;66218;48.928;9.140;2023-02-28T00:43:48;0.70;;;0.50;;
77222;SDS011;66218;48.928;9.140;2023-02-28T00:46:14;1.00;;;0.53;;
77222;SDS011;66218;48.928;9.140;2023-02-28T00:48:39;0.93;;;0.85;;
77222;SDS011;66218;48.928;9.140;2023-02-28T00:51:04;0.80;;;0.67;;
77222;SDS011;66218;48.928;9.140;2023-02-28T00:53:30;0.40;;;0.38;;
77222;SDS011;66218;48.928;9.140;2023-02-28T00:55:55;5.00;;;0.50;;
77222;SDS011;66218;48.928;9.140;2023-02-28T00:58:20;0.65;;;0.45;;
77222;SDS011;66218;48.928;9.140;2023-02-28T01:00:45;0.33;;;0.33;;
77222;SDS011;66218;48.928;9.140;2023-02-28T01:03:14;1.40;;;0.38;;
77222;SDS011;66218;48.928;9.140;2023-02-28T01:05:40;0.55;;;0.55;;
77222;SDS011;66218;48.928;9.140;2023-02-28T01:08:06;1.00;;;0.40;;
77222;SDS011;66218;48.928;9.140;2023-02-28T01:10:31;0.15;;;0.15;;
77222;SDS011;66218;48.928;9.140;2023-02-28T01:12:57;1.03;;;0.13;;
77222;SDS011;66218;48.928;9.140;2023-02-28T01:15:22;0.50;;;0.50;;
77222;SDS011;66218;48.928;9.140;2023-02-28T01:17:47;0.67;;;0.33;;
77222;SDS011;66218;48.928;9.140;2023-02-28T01:20:13;0.20;;;0.20;;
77222;SDS011;66218;48.928;9.140;2023-02-28T01:22:38;0.28;;;0.10;;
77222;SDS011;66218;48.928;9.140;2023-02-28T01:25:03;0.60;;;0.43;;
77222;SDS011;66218;48.928;9.140;2023-02-28T01:27:28;1.75;;;1.20;;
77222;SDS011;66218;48.928;9.140;2023-02-28T01:29:54;2.17;;;0.67;;
77222;SDS011;66218;48.928;9.140;2023-02-28T01:32:19;7.23;;;2.27;;
77222;SDS011;66218;48.928;9.140;2023-02-28T01:34:44;0.10;;;0.10;;
77222;SDS011;66218;48.928;9.140;2023-02-28T01:37:09;0.73;;;0.70;;
77222;SDS011;66218;48.928;9.140;2023-02-28T01:39:34;0.60;;;0.53;;
77222;SDS011;66218;48.928;9.140;2023-02-28T01:42:00;0.37;;;0.30;;
77222;SDS011;66218;48.928;9.140;2023-02-28T01:47:09;0.90;;;0.40;;
77222;SDS011;66218;48.928;9.140;2023-02-28T01:49:34;0.10;;;0.10;;
77222;SDS011;66218;48.928;9.140;2023-02-28T01:51:59;1.00;;;0.60;;
77222;SDS011;66218;48.928;9.140;2023-02-28T01:54:28;1.10;;;0.40;;
77222;SDS011;66218;48.928;9.140;2023-02-28T01:57:01;1.13;;;0.80;;
77222;SDS011;66218;48.928;9.140;2023-02-28T01:59:33;1.55;;;0.73;;
77222;SDS011;66218;48.928;9.140;2023-02-28T02:02:00;0.30;;;0.22;;
77222;SDS011;66218;48.928;9.140;2023-02-28T02:04:26;0.68;;;0.20;;
77222;SDS011;66218;48.928;9.140;2023-02-28T02:06:52;0.35;;;0.35;;
77222;SDS011;66218;48.928;9.140;2023-02-28T02:09:17;2.17;;;0.77;;
77222;SDS011;66218;48.928;9.140;2023-02-28T02:11:43;0.30;;;0.23;;
77222;SDS011;66218;48.928;9.140;2023-02-28T02:16:44;0.52;;;0.52;;
77222;SDS011;66218;48.928;9.140;2023-02-28T02:24:22;0.70;;;0.70;;
77222;SDS011;66218;48.928;9.140;2023-02-28T02:37:52;0.43;;;0.43;;
77222;SDS011;66218;48.928;9.140;2023-02-28T02:47:49;2.10;;;0.98;;
77222;SDS011;66218;48.928;9.140;2023-02-28T02:50:26;0.82;;;0.52;;
77222;SDS011;66218;48.928;9.140;2023-02-28T02:52:54;0.85;;;0.75;;
77222;SDS011;66218;48.928;9.140;2023-02-28T02:55:21;0.85;;;0.85;;
77222;SDS011;66218;48.928;9.140;2023-02-28T02:57:58;2.33;;;0.63;;
77222;SDS011;66218;48.928;9.140;2023-02-28T03:00:29;0.38;;;0.38;;
77222;SDS011;66218;48.928;9.140;2023-02-28T03:02:55;0.20;;;0.20;;
77222;SDS011;66218;48.928;9.140;2023-02-28T03:05:23;0.55;;;0.55;;
77222;SDS011;66218;48.928;9.140;2023-02-28T03:07:48;0.88;;;0.38;;
77222;SDS011;66218;48.928;9.140;2023-02-28T03:10:27;1.70;;;0.63;;
77222;SDS011;66218;48.928;9.140;2023-02-28T03:12:55;2.17;;;0.90;;
77222;SDS011;66218;48.928;9.140;2023-02-28T03:15:31;0.05;;;0.03;;
77222;SDS011;66218;48.928;9.140;2023-02-28T03:18:08;0.80;;;0.80;;
77222;SDS011;66218;48.928;9.140;2023-02-28T03:23:21;0.17;;;0.17;;
77222;SDS011;66218;48.928;9.140;2023-02-28T03:26:02;0.77;;;0.70;;
77222;SDS011;66218;48.928;9.140;2023-02-28T03:33:51;0.38;;;0.38;;
77222;SDS011;66218;48.928;9.140;2023-02-28T03:36:20;1.02;;;0.63;;
77222;SDS011;66218;48.928;9.140;2023-02-28T03:38:49;0.65;;;0.47;;
77222;SDS011;66218;48.928;9.140;2023-02-28T03:41:18;2.00;;;1.20;;
77222;SDS011;66218;48.928;9.140;2023-02-28T03:43:49;1.10;;;0.75;;
77222;SDS011;66218;48.928;9.140;2023-02-28T03:46:16;0.60;;;0.60;;
77222;SDS011;66218;48.928;9.140;2023-02-28T03:48:49;0.63;;;0.55;;
77222;SDS011;66218;48.928;9.140;2023-02-28T03:51:16;2.47;;;0.77;;
77222;SDS011;66218;48.928;9.140;2023-02-28T03:53:47;1.33;;;0.93;;
77222;SDS011;66218;48.928;9.140;2023-02-28T03:56:17;1.55;;;0.98;;
77222;SDS011;66218;48.928;9.140;2023-02-28T04:01:33;0.95;;;0.63;;
77222;SDS011;66218;48.928;9.140;2023-02-28T04:03:56;2.55;;;0.98;;
77222;SDS011;66218;48.928;9.140;2023-02-28T04:06:22;1.30;;;0.97;;
77222;SDS011;66218;48.928;9.140;2023-02-28T04:08:48;0.88;;;0.70;;
77222;SDS011;66218;48.928;9.140;2023-02-28T04:11:24;3.05;;;0.98;;
77222;SDS011;66218;48.928;9.140;2023-02-28T04:13:51;0.30;;;0.25;;
77222;SDS011;66218;48.928;9.140;2023-02-28T04:16:16;6.67;;;1.13;;
77222;SDS011;66218;48.928;9.140;2023-02-28T04:18:41;1.03;;;0.93;;
77222;SDS011;66218;48.928;9.140;2023-02-28T04:21:10;1.05;;;0.90;;
77222;SDS011;66218;48.928;9.140;2023-02-28T04:23:36;4.30;;;0.65;;
77222;SDS011;66218;48.928;9.140;2023-02-28T04:26:01;4.10;;;1.07;;
77222;SDS011;66218;48.928;9.140;2023-02-28T04:28:26;1.47;;;1.30;;
77222;SDS011;66218;48.928;9.140;2023-02-28T04:30:58;0.67;;;0.63;;
77222;SDS011;66218;48.928;9.140;2023-02-28T04:33:23;0.32;;;0.20;;
77222;SDS011;66218;48.928;9.140;2023-02-28T04:35:57;2.78;;;2.20;;
77222;SDS011;66218;48.928;9.140;2023-02-28T04:38:22;0.47;;;0.40;;
77222;SDS011;66218;48.928;9.140;2023-02-28T04:40:48;0.03;;;0.03;;
77222;SDS011;66218;48.928;9.140;2023-02-28T04:43:13;1.00;;;0.97;;
77222;SDS011;66218;48.928;9.140;2023-02-28T04:45:38;0.37;;;0.37;;
77222;SDS011;66218;48.928;9.140;2023-02-28T04:48:03;0.83;;;0.83;;
77222;SDS011;66218;48.928;9.140;2023-02-28T04:50:28;1.40;;;0.70;;
77222;SDS011;66218;48.928;9.140;2023-02-28T04:52:53;0.97;;;0.87;;
77222;SDS011;66218;48.928;9.140;2023-02-28T04:55:19;0.77;;;0.55;;
77222;SDS011;66218;48.928;9.140;2023-02-28T04:57:44;0.17;;;0.17;;
77222;SDS011;66218;48.928;9.140;2023-02-28T05:00:10;1.13;;;0.60;;
77222;SDS011;66218;48.928;9.140;2023-02-28T05:02:36;0.80;;;0.40;;
77222;SDS011;66218;48.928;9.140;2023-02-28T05:05:02;0.38;;;0.38;;
77222;SDS011;66218;48.928;9.140;2023-02-28T05:07:27;2.03;;;0.63;;
77222;SDS011;66218;48.928;9.140;2023-02-28T05:09:52;1.43;;;0.50;;
77222;SDS011;66218;48.928;9.140;2023-02-28T05:12:18;0.60;;;0.57;;
77222;SDS011;66218;48.928;9.140;2023-02-28T05:14:43;4.33;;;2.33;;
77222;SDS011;66218;48.928;9.140;2023-02-28T05:17:09;2.45;;;1.00;;
77222;SDS011;66218;48.928;9.140;2023-02-28T05:19:34;1.75;;;0.85;;
77222;SDS011;66218;48.928;9.140;2023-02-28T05:22:00;0.60;;;0.40;;
77222;SDS011;66218;48.928;9.140;2023-02-28T05:24:25;3.23;;;1.00;;
77222;SDS011;66218;48.928;9.140;2023-02-28T05:26:51;2.80;;;0.75;;
77222;SDS011;66218;48.928;9.140;2023-02-28T05:29:17;0.75;;;0.75;;
77222;SDS011;66218;48.928;9.140;2023-02-28T05:31:43;2.25;;;0.55;;
77222;SDS011;66218;48.928;9.140;2023-02-28T05:34:08;2.73;;;2.37;;
77222;SDS011;66218;48.928;9.140;2023-02-28T05:36:36;1.35;;;0.43;;
77222;SDS011;66218;48.928;9.140;2023-02-28T05:39:01;1.38;;;0.65;;
77222;SDS011;66218;48.928;9.140;2023-02-28T05:41:28;1.15;;;0.93;;
77222;SDS011;66218;48.928;9.140;2023-02-28T05:43:53;0.50;;;0.43;;
77222;SDS011;66218;48.928;9.140;2023-02-28T05:46:18;1.97;;;1.87;;
77222;SDS011;66218;48.928;9.140;2023-02-28T05:48:45;3.53;;;1.43;;
77222;SDS011;66218;48.928;9.140;2023-02-28T05:51:11;1.48;;;1.38;;
77222;SDS011;66218;48.928;9.140;2023-02-28T05:53:36;3.80;;;1.95;;
77222;SDS011;66218;48.928;9.140;2023-02-28T05:56:02;0.80;;;0.80;;
77222;SDS011;66218;48.928;9.140;2023-02-28T05:58:27;2.47;;;2.03;;
77222;SDS011;66218;48.928;9.140;2023-02-28T06:00:55;0.35;;;0.15;;
77222;SDS011;66218;48.928;9.140;2023-02-28T06:03:20;1.17;;;0.68;;
77222;SDS011;66218;48.928;9.140;2023-02-28T06:05:46;0.30;;;0.30;;
77222;SDS011;66218;48.928;9.140;2023-02-28T06:08:11;1.13;;;0.70;;
77222;SDS011;66218;48.928;9.140;2023-02-28T06:10:36;2.63;;;0.60;;
77222;SDS011;66218;48.928;9.140;2023-02-28T06:13:04;1.97;;;0.67;;
77222;SDS011;66218;48.928;9.140;2023-02-28T06:15:30;0.70;;;0.50;;
77222;SDS011;66218;48.928;9.140;2023-02-28T06:17:55;4.18;;;1.52;;
77222;SDS011;66218;48.928;9.140;2023-02-28T06:20:21;0.98;;;0.60;;
77222;SDS011;66218;48.928;9.140;2023-02-28T06:22:47;1.05;;;0.90;;
77222;SDS011;66218;48.928;9.140;2023-02-28T06:25:12;1.58;;;0.77;;
77222;SDS011;66218;48.928;9.140;2023-02-28T06:27:37;1.43;;;1.10;;
77222;SDS011;66218;48.928;9.140;2023-02-28T06:30:03;1.55;;;0.35;;
77222;SDS011;66218;48.928;9.140;2023-02-28T06:32:28;5.57;;;1.38;;
77222;SDS011;66218;48.928;9.140;2023-02-28T06:34:53;0.77;;;0.73;;
77222;SDS011;66218;48.928;9.140;2023-02-28T06:37:18;1.48;;;0.98;;
77222;SDS011;66218;48.928;9.140;2023-02-28T06:39:44;0.75;;;0.28;;
77222;SDS011;66218;48.928;9.140;2023-02-28T06:42:09;0.75;;;0.52;;
77222;SDS011;66218;48.928;9.140;2023-02-28T06:44:34;0.30;;;0.27;;
77222;SDS011;66218;48.928;9.140;2023-02-28T06:47:00;8.60;;;2.10;;
77222;SDS011;66218;48.928;9.140;2023-02-28T06:49:27;0.45;;;0.30;;
77222;SDS011;66218;48.928;9.140;2023-02-28T06:51:52;0.87;;;0.63;;
77222;SDS011;66218;48.928;9.140;2023-02-28T06:54:18;1.75;;;1.08;;
77222;SDS011;66218;48.928;9.140;2023-02-28T06:56:43;1.23;;;0.80;;
77222;SDS011;66218;48.928;9.140;2023-02-28T06:59:09;1.20;;;1.03;;
77222;SDS011;66218;48.928;9.140;2023-02-28T07:01:34;1.83;;;1.00;;
77222;SDS011;66218;48.928;9.140;2023-02-28T07:04:00;3.10;;;0.93;;
77222;SDS011;66218;48.928;9.140;2023-02-28T07:06:25;2.28;;;1.50;;
77222;SDS011;66218;48.928;9.140;2023-02-28T07:08:51;1.80;;;1.23;;
77222;SDS011;66218;48.928;9.140;2023-02-28T07:11:20;1.80;;;1.02;;
77222;SDS011;66218;48.928;9.140;2023-02-28T07:13:47;0.80;;;0.73;;
77222;SDS011;66218;48.928;9.140;2023-02-28T07:16:12;1.52;;;1.08;;
77222;SDS011;66218;48.928;9.140;2023-02-28T07:18:38;1.08;;;0.60;;
77222;SDS011;66218;48.928;9.140;2023-02-28T07:21:04;0.50;;;0.30;;
77222;SDS011;66218;48.928;9.140;2023-02-28T07:23:29;0.70;;;0.57;;
77222;SDS011;66218;48.928;9.140;2023-02-28T07:25:55;0.63;;;0.63;;
77222;SDS011;66218;48.928;9.140;2023-02-28T07:28:20;1.80;;;1.53;;
77222;SDS011;66218;48.928;9.140;2023-02-28T07:30:45;0.87;;;0.83;;
77222;SDS011;66218;48.928;9.140;2023-02-28T07:33:10;2.90;;;0.85;;
77222;SDS011;66218;48.928;9.140;2023-02-28T07:35:36;2.37;;;0.97;;
77222;SDS011;66218;48.928;9.140;2023-02-28T07:38:01;3.30;;;1.27;;
77222;SDS011;66218;48.928;9.140;2023-02-28T07:40:27;4.20;;;0.65;;
77222;SDS011;66218;48.928;9.140;2023-02-28T07:42:53;0.70;;;0.67;;
77222;SDS011;66218;48.928;9.140;2023-02-28T07:45:18;1.93;;;0.70;;
77222;SDS011;66218;48.928;9.140;2023-02-28T07:47:44;0.90;;;0.80;;
77222;SDS011;66218;48.928;9.140;2023-02-28T07:50:10;0.80;;;0.25;;
77222;SDS011;66218;48.928;9.140;2023-02-28T07:52:36;3.35;;;1.65;;
77222;SDS011;66218;48.928;9.140;2023-02-28T07:55:01;6.00;;;1.50;;
77222;SDS011;66218;48.928;9.140;2023-02-28T07:57:26;2.50;;;1.60;;
77222;SDS011;66218;48.928;9.140;2023-02-28T07:59:52;2.70;;;0.83;;
77222;SDS011;66218;48.928;9.140;2023-02-28T08:02:17;2.37;;;1.00;;
77222;SDS011;66218;48.928;9.140;2023-02-28T08:04:43;13.48;;;1.88;;
77222;SDS011;66218;48.928;9.140;2023-02-28T08:07:09;1.33;;;1.23;;
77222;SDS011;66218;48.928;9.140;2023-02-28T08:09:37;1.85;;;0.85;;
77222;SDS011;66218;48.928;9.140;2023-02-28T08:12:03;1.73;;;1.13;;
77222;SDS011;66218;48.928;9.140;2023-02-28T08:14:28;1.20;;;1.10;;
77222;SDS011;66218;48.928;9.140;2023-02-28T08:16:53;1.33;;;1.23;;
77222;SDS011;66218;48.928;9.140;2023-02-28T08:19:19;9.05;;;2.13;;
77222;SDS011;66218;48.928;9.140;2023-02-28T08:21:44;1.27;;;1.13;;
77222;SDS011;66218;48.928;9.140;2023-02-28T08:24:09;0.77;;;0.77;;
77222;SDS011;66218;48.928;9.140;2023-02-28T08:26:35;6.83;;;2.40;;
77222;SDS011;66218;48.928;9.140;2023-02-28T08:29:00;1.33;;;0.43;;
77222;SDS011;66218;48.928;9.140;2023-02-28T08:31:25;0.90;;;0.70;;
77222;SDS011;66218;48.928;9.140;2023-02-28T08:33:50;2.60;;;1.90;;
77222;SDS011;66218;48.928;9.140;2023-02-28T08:36:17;4.95;;;1.35;;
77222;SDS011;66218;48.928;9.140;2023-02-28T08:38:43;2.17;;;0.97;;
77222;SDS011;66218;48.928;9.140;2023-02-28T08:41:09;1.40;;;0.93;;
77222;SDS011;66218;48.928;9.140;2023-02-28T08:43:35;4.07;;;1.02;;
77222;SDS011;66218;48.928;9.140;2023-02-28T08:46:00;1.27;;;1.17;;
77222;SDS011;66218;48.928;9.140;2023-02-28T08:48:26;3.13;;;1.85;;
77222;SDS011;66218;48.928;9.140;2023-02-28T08:50:59;3.35;;;2.00;;
77222;SDS011;66218;48.928;9.140;2023-02-28T08:53:24;3.33;;;2.28;;
77222;SDS011;66218;48.928;9.140;2023-02-28T08:56:23;0.70;;;0.63;;
77222;SDS011;66218;48.928;9.140;2023-02-28T08:58:44;3.65;;;2.17;;
77222;SDS011;66218;48.928;9.140;2023-02-28T09:01:12;1.33;;;1.23;;
77222;SDS011;66218;48.928;9.140;2023-02-28T09:03:37;2.92;;;1.33;;
77222;SDS011;66218;48.928;9.140;2023-02-28T09:06:03;1.33;;;0.85;;
77222;SDS011;66218;48.928;9.140;2023-02-28T09:08:29;1.58;;;1.17;;
77222;SDS011;66218;48.928;9.140;2023-02-28T09:10:58;2.50;;;1.90;;
77222;SDS011;66218;48.928;9.140;2023-02-28T09:13:24;2.35;;;1.58;;
77222;SDS011;66218;48.928;9.140;2023-02-28T09:15:49;4.25;;;2.30;;
77222;SDS011;66218;48.928;9.140;2023-02-28T09:18:15;4.97;;;1.35;;
77222;SDS011;66218;48.928;9.140;2023-02-28T09:20:41;3.17;;;1.40;;
77222;SDS011;66218;48.928;9.140;2023-02-28T09:23:07;1.25;;;0.82;;
77222;SDS011;66218;48.928;9.140;2023-02-28T09:25:32;1.83;;;1.20;;
77222;SDS011;66218;48.928;9.140;2023-02-28T09:27:58;5.20;;;1.63;;
77222;SDS011;66218;48.928;9.140;2023-02-28T09:30:23;2.47;;;1.77;;
77222;SDS011;66218;48.928;9.140;2023-02-28T09:32:48;4.90;;;2.23;;
77222;SDS011;66218;48.928;9.140;2023-02-28T09:35:20;4.10;;;1.55;;
77222;SDS011;66218;48.928;9.140;2023-02-28T09:37:46;4.20;;;1.92;;
77222;SDS011;66218;48.928;9.140;2023-02-28T09:40:11;4.68;;;1.73;;
77222;SDS011;66218;48.928;9.140;2023-02-28T09:42:37;4.80;;;2.22;;
77222;SDS011;66218;48.928;9.140;2023-02-28T09:45:03;7.07;;;1.67;;
77222;SDS011;66218;48.928;9.140;2023-02-28T09:49:58;3.50;;;2.00;;
77222;SDS011;66218;48.928;9.140;2023-02-28T09:52:28;5.93;;;2.58;;
77222;SDS011;66218;48.928;9.140;2023-02-28T09:54:54;3.63;;;1.65;;
77222;SDS011;66218;48.928;9.140;2023-02-28T09:57:33;5.22;;;2.05;;
77222;SDS011;66218;48.928;9.140;2023-02-28T10:00:05;3.53;;;1.67;;
77222;SDS011;66218;48.928;9.140;2023-02-28T10:05:25;4.18;;;2.08;;
77222;SDS011;66218;48.928;9.140;2023-02-28T10:12:59;8.07;;;2.78;;
77222;SDS011;66218;48.928;9.140;2023-02-28T10:15:25;4.95;;;2.33;;
77222;SDS011;66218;48.928;9.140;2023-02-28T10:18:12;4.43;;;2.33;;
77222;SDS011;66218;48.928;9.140;2023-02-28T10:23:16;3.00;;;1.40;;
77222;SDS011;66218;48.928;9.140;2023-02-28T10:25:42;4.75;;;2.33;;
77222;SDS011;66218;48.928;9.140;2023-02-28T10:28:14;5.80;;;2.58;;
77222;SDS011;66218;48.928;9.140;2023-02-28T10:33:04;2.53;;;1.13;;
77222;SDS011;66218;48.928;9.140;2023-02-28T10:35:30;4.90;;;2.37;;
77222;SDS011;66218;48.928;9.140;2023-02-28T10:37:56;4.13;;;2.80;;
77222;SDS011;66218;48.928;9.140;2023-02-28T10:42:57;6.07;;;2.80;;
77222;SDS011;66218;48.928;9.140;2023-02-28T10:45:22;4.95;;;2.55;;
77222;SDS011;66218;48.928;9.140;2023-02-28T10:55:43;5.10;;;2.97;;
77222;SDS011;66218;48.928;9.140;2023-02-28T10:58:22;6.25;;;3.00;;
77222;SDS011;66218;48.928;9.140;2023-02-28T11:00:48;5.20;;;3.38;;
77222;SDS011;66218;48.928;9.140;2023-02-28T11:06:18;7.90;;;3.08;;
77222;SDS011;66218;48.928;9.140;2023-02-28T11:08:45;3.42;;;1.35;;
77222;SDS011;66218;48.928;9.140;2023-02-28T11:11:11;6.22;;;3.13;;
77222;SDS011;66218;48.928;9.140;2023-02-28T11:13:36;3.70;;;1.95;;
77222;SDS011;66218;48.928;9.140;2023-02-28T11:16:06;6.95;;;3.35;;
77222;SDS011;66218;48.928;9.140;2023-02-28T11:21:06;3.63;;;1.98;;
77222;SDS011;66218;48.928;9.140;2023-02-28T11:23:33;4.50;;;2.78;;
77222;SDS011;66218;48.928;9.140;2023-02-28T11:26:00;5.78;;;2.20;;
77222;SDS011;66218;48.928;9.140;2023-02-28T11:28:27;3.60;;;2.60;;
77222;SDS011;66218;48.928;9.140;2023-02-28T11:31:00;4.53;;;2.25;;
77222;SDS011;66218;48.928;9.140;2023-02-28T11:33:29;4.78;;;2.42;;
77222;SDS011;66218;48.928;9.140;2023-02-28T11:36:02;4.13;;;2.25;;
77222;SDS011;66218;48.928;9.140;2023-02-28T11:38:28;7.43;;;2.75;;
77222;SDS011;66218;48.928;9.140;2023-02-28T11:40:58;4.07;;;2.28;;
77222;SDS011;66218;48.928;9.140;2023-02-28T11:48:33;5.45;;;2.78;;
77222;SDS011;66218;48.928;9.140;2023-02-28T11:51:23;7.50;;;3.40;;
77222;SDS011;66218;48.928;9.140;2023-02-28T11:53:58;5.82;;;2.85;;
77222;SDS011;66218;48.928;9.140;2023-02-28T11:56:31;2.78;;;2.10;;
77222;SDS011;66218;48.928;9.140;2023-02-28T11:59:03;3.67;;;2.45;;
77222;SDS011;66218;48.928;9.140;2023-02-28T12:11:55;6.00;;;2.15;;
77222;SDS011;66218;48.928;9.140;2023-02-28T12:14:37;4.72;;;2.83;;
77222;SDS011;66218;48.928;9.140;2023-02-28T12:17:47;4.32;;;1.58;;
77222;SDS011;66218;48.928;9.140;2023-02-28T12:25:41;5.35;;;2.38;;
77222;SDS011;66218;48.928;9.140;2023-02-28T12:28:12;3.20;;;2.00;;
77222;SDS011;66218;48.928;9.140;2023-02-28T12:30:41;5.10;;;2.63;;
77222;SDS011;66218;48.928;9.140;2023-02-28T12:33:09;3.80;;;2.22;;
77222;SDS011;66218;48.928;9.140;2023-02-28T12:35:48;6.25;;;2.75;;
77222;SDS011;66218;48.928;9.140;2023-02-28T12:38:14;13.65;;;2.22;;
77222;SDS011;66218;48.928;9.140;2023-02-28T12:40:45;3.75;;;2.65;;
77222;SDS011;66218;48.928;9.140;2023-02-28T12:43:12;6.20;;;3.08;;
77222;SDS011;66218;48.928;9.140;2023-02-28T12:45:43;5.65;;;2.42;;
77222;SDS011;66218;48.928;9.140;2023-02-28T12:48:12;2.65;;;2.03;;
77222;SDS011;66218;48.928;9.140;2023-02-28T12:50:38;3.17;;;1.75;;
77222;SDS011;66218;48.928;9.140;2023-02-28T12:53:17;3.63;;;2.17;;
77222;SDS011;66218;48.928;9.140;2023-02-28T13:01:04;3.03;;;2.17;;
77222;SDS011;66218;48.928;9.140;2023-02-28T13:06:19;6.33;;;2.67;;
77222;SDS011;66218;48.928;9.140;2023-02-28T13:12:12;3.73;;;2.10;;
77222;SDS011;66218;48.928;9.140;2023-02-28T13:14:28;6.57;;;2.75;;
77222;SDS011;66218;48.928;9.140;2023-02-28T13:16:55;1.88;;;1.33;;
77222;SDS011;66218;48.928;9.140;2023-02-28T13:19:22;4.00;;;2.60;;
77222;SDS011;66218;48.928;9.140;2023-02-28T13:21:49;3.20;;;2.13;;
77222;SDS011;66218;48.928;9.140;2023-02-28T13:29:41;3.97;;;1.77;;
77222;SDS011;66218;48.928;9.140;2023-02-28T13:37:30;4.30;;;1.77;;
77222;SDS011;66218;48.928;9.140;2023-02-28T13:50:11;5.13;;;2.40;;
77222;SDS011;66218;48.928;9.140;2023-02-28T13:52:42;6.55;;;2.80;;
77222;SDS011;66218;48.928;9.140;2023-02-28T14:03:01;3.10;;;1.77;;
77222;SDS011;66218;48.928;9.140;2023-02-28T14:05:31;4.93;;;2.88;;
77222;SDS011;66218;48.928;9.140;2023-02-28T14:07:58;4.03;;;2.58;;
77222;SDS011;66218;48.928;9.140;2023-02-28T14:10:31;6.03;;;2.70;;
77222;SDS011;66218;48.928;9.140;2023-02-28T14:15:49;2.30;;;1.85;;
77222;SDS011;66218;48.928;9.140;2023-02-28T14:18:23;3.80;;;2.78;;
77222;SDS011;66218;48.928;9.140;2023-02-28T14:20:49;2.25;;;1.40;;
77222;SDS011;66218;48.928;9.140;2023-02-28T14:23:32;5.68;;;2.45;;
77222;SDS011;66218;48.928;9.140;2023-02-28T14:26:02;8.35;;;3.60;;
77222;SDS011;66218;48.928;9.140;2023-02-28T14:28:50;4.95;;;2.70;;
77222;SDS011;66218;48.928;9.140;2023-02-28T14:31:22;5.45;;;2.83;;
77222;SDS011;66218;48.928;9.140;2023-02-28T14:41:16;5.43;;;2.50;;
77222;SDS011;66218;48.928;9.140;2023-02-28T14:43:52;4.03;;;2.08;;
77222;SDS011;66218;48.928;9.140;2023-02-28T14:46:18;5.32;;;3.10;;
77222;SDS011;66218;48.928;9.140;2023-02-28T14:48:45;5.47;;;3.03;;
77222;SDS011;66218;48.928;9.140;2023-02-28T14:51:10;5.03;;;2.65;;
77222;SDS011;66218;48.928;9.140;2023-02-28T14:53:36;6.40;;;2.43;;
77222;SDS011;66218;48.928;9.140;2023-02-28T14:56:02;3.05;;;1.55;;
77222;SDS011;66218;48.928;9.140;2023-02-28T15:00:54;2.90;;;1.97;;
77222;SDS011;66218;48.928;9.140;2023-02-28T15:05:55;5.55;;;2.55;;
77222;SDS011;66218;48.928;9.140;2023-02-28T15:13:12;5.00;;;2.33;;
77222;SDS011;66218;48.928;9.140;2023-02-28T15:15:45;4.88;;;2.55;;
77222;SDS011;66218;48.928;9.140;2023-02-28T15:18:15;4.03;;;2.03;;
77222;SDS011;66218;48.928;9.140;2023-02-28T15:20:41;2.75;;;1.67;;
77222;SDS011;66218;48.928;9.140;2023-02-28T15:23:07;6.10;;;1.98;;
77222;SDS011;66218;48.928;9.140;2023-02-28T15:25:33;8.77;;;2.70;;
77222;SDS011;66218;48.928;9.140;2023-02-28T15:27:59;6.03;;;2.63;;
77222;SDS011;66218;48.928;9.140;2023-02-28T15:30:26;6.03;;;3.23;;
77222;SDS011;66218;48.928;9.140;2023-02-28T15:33:37;7.20;;;2.33;;
77222;SDS011;66218;48.928;9.140;2023-02-28T15:35:37;6.78;;;2.80;;
77222;SDS011;66218;48.928;9.140;2023-02-28T15:38:04;6.18;;;3.28;;
77222;SDS011;66218;48.928;9.140;2023-02-28T15:40:40;3.97;;;2.67;;
77222;SDS011;66218;48.928;9.140;2023-02-28T15:45:38;2.92;;;1.90;;
77222;SDS011;66218;48.928;9.140;2023-02-28T15:48:12;6.35;;;2.55;;
77222;SDS011;66218;48.928;9.140;2023-02-28T15:50:38;2.33;;;1.75;;
77222;SDS011;66218;48.928;9.140;2023-02-28T15:53:03;4.50;;;2.03;;
77222;SDS011;66218;48.928;9.140;2023-02-28T15:55:28;7.20;;;2.87;;
77222;SDS011;66218;48.928;9.140;2023-02-28T15:57:55;4.88;;;3.35;;
77222;SDS011;66218;48.928;9.140;2023-02-28T16:00:25;5.15;;;3.10;;
77222;SDS011;66218;48.928;9.140;2023-02-28T16:07:41;2.85;;;1.65;;
77222;SDS011;66218;48.928;9.140;2023-02-28T16:12:33;5.77;;;2.37;;
77222;SDS011;66218;48.928;9.140;2023-02-28T16:15:00;4.50;;;1.77;;
77222;SDS011;66218;48.928;9.140;2023-02-28T16:17:29;3.92;;;1.58;;
77222;SDS011;66218;48.928;9.140;2023-02-28T16:19:56;4.18;;;2.38;;
77222;SDS011;66218;48.928;9.140;2023-02-28T16:22:21;4.22;;;2.95;;
77222;SDS011;66218;48.928;9.140;2023-02-28T16:24:47;4.07;;;2.83;;
77222;SDS011;66218;48.928;9.140;2023-02-28T16:27:27;4.30;;;2.40;;
77222;SDS011;66218;48.928;9.140;2023-02-28T16:29:54;5.95;;;2.67;;
77222;SDS011;66218;48.928;9.140;2023-02-28T16:32:20;2.43;;;1.20;;
77222;SDS011;66218;48.928;9.140;2023-02-28T16:34:45;3.37;;;2.20;;
77222;SDS011;66218;48.928;9.140;2023-02-28T16:37:14;6.50;;;2.77;;
77222;SDS011;66218;48.928;9.140;2023-02-28T16:39:40;4.90;;;2.83;;
77222;SDS011;66218;48.928;9.140;2023-02-28T16:42:05;6.28;;;1.65;;
77222;SDS011;66218;48.928;9.140;2023-02-28T16:44:32;6.75;;;2.47;;
77222;SDS011;66218;48.928;9.140;2023-02-28T16:46:59;4.20;;;2.38;;
77222;SDS011;66218;48.928;9.140;2023-02-28T16:49:24;3.42;;;2.03;;
77222;SDS011;66218;48.928;9.140;2023-02-28T16:51:50;5.50;;;2.27;;
77222;SDS011;66218;48.928;9.140;2023-02-28T16:54:15;5.93;;;2.57;;
77222;SDS011;66218;48.928;9.140;2023-02-28T16:56:43;2.40;;;1.63;;
77222;SDS011;66218;48.928;9.140;2023-02-28T16:59:08;5.03;;;2.15;;
77222;SDS011;66218;48.928;9.140;2023-02-28T17:01:35;4.63;;;2.63;;
77222;SDS011;66218;48.928;9.140;2023-02-28T17:04:00;4.82;;;2.70;;
77222;SDS011;66218;48.928;9.140;2023-02-28T17:06:26;5.90;;;2.13;;
77222;SDS011;66218;48.928;9.140;2023-02-28T17:11:18;1.50;;;1.33;;
77222;SDS011;66218;48.928;9.140;2023-02-28T17:13:43;7.18;;;3.05;;
77222;SDS011;66218;48.928;9.140;2023-02-28T17:16:13;2.47;;;1.63;;
77222;SDS011;66218;48.928;9.140;2023-02-28T17:18:39;3.47;;;2.30;;
77222;SDS011;66218;48.928;9.140;2023-02-28T17:21:08;4.70;;;1.70;;
77222;SDS011;66218;48.928;9.140;2023-02-28T17:23:34;4.50;;;2.20;;
77222;SDS011;66218;48.928;9.140;2023-02-28T17:25:59;6.83;;;2.40;;
77222;SDS011;66218;48.928;9.140;2023-02-28T17:28:24;6.87;;;3.03;;
77222;SDS011;66218;48.928;9.140;2023-02-28T17:30:50;1.50;;;1.40;;
77222;SDS011;66218;48.928;9.140;2023-02-28T17:33:15;2.80;;;0.93;;